»·PEaware :: PAWS13 KGEG-KSEA

PAWS13 :: KGEG-KSEA

FLIGHT INFORMATION

Flight Status: Arrived
Operator: Unknown
More flights by this operator :: More flights under this callsign
Pilot: Brandon C. (21997)
Aircraft: BEECH AIRCRAFT T-6A TEXAN
(TEX2)
More flights by this aircraft type
Origin: KGEG Spokane Intl
United States
Destination: KSEA Seattle-Tacoma Intl
United States
More flights between these airports :: More routes between these airports
Route: GEG GLASR1
File this flight plan on PilotEdge
Remarks: Request SPOKANE SIX departure and EPHRATA EIGHT with EPHRATA transition
Altitude:
(Current/Filed)
16,000ft
Speed:
(Current/Filed)
270kts
Departed: 04-Feb-21 06:45 AM
Arrived: 04-Feb-21 07:25 AM
Distance/Time
Traveled:
194nm/0:40
Distance/Time
To Go:
Arrived

Flight Plot

Page will automatically refresh every two minutes.

Flight plan parsing failed; only flown route is shown


Map Options




Map Legend


Flown Route
Filed Route
Departure Airport
Arrival Airport
Navaid (VOR, NDB)
Fix

Horizontal Profiles

Position Reports

Time Latitude Longitude Heading Altitude Ground
Speed
04-Feb-21 06:17 47.620428 -117.528554 359 2359ft 0kts
04-Feb-21 06:18 47.620428 -117.528554 359 2359ft 0kts
04-Feb-21 06:19 47.620428 -117.528554 359 2359ft 0kts
04-Feb-21 06:20 47.620428 -117.528554 359 2359ft 0kts
04-Feb-21 06:21 47.620428 -117.528554 359 2359ft 0kts
04-Feb-21 06:30 47.620428 -117.528554 359 2359ft 0kts
04-Feb-21 06:31 47.620428 -117.528554 359 2359ft 0kts
04-Feb-21 06:32 47.620428 -117.528554 359 2359ft 0kts
04-Feb-21 06:33 47.620428 -117.528554 359 2359ft 0kts
04-Feb-21 06:34 47.620428 -117.528554 359 2359ft 0kts
04-Feb-21 06:35 47.620428 -117.528554 359 2359ft 0kts
04-Feb-21 06:36 47.620428 -117.528554 359 2359ft 0kts
04-Feb-21 06:37 47.620428 -117.528554 359 2359ft 0kts
04-Feb-21 06:38 47.620430 -117.528554 359 2359ft 0kts
04-Feb-21 06:39 47.622406 -117.528046 44 2355ft 13kts
04-Feb-21 06:40 47.625196 -117.523882 46 2347ft 2kts
04-Feb-21 06:41 47.627023 -117.521111 47 2342ft 14kts
04-Feb-21 06:42 47.630213 -117.517038 325 2324ft 14kts
04-Feb-21 06:43 47.630772 -117.518928 225 2326ft 10kts
04-Feb-21 06:44 47.613009 -117.544619 224 3642ft 162kts
04-Feb-21 06:45 47.583615 -117.587137 238 6035ft 197kts
04-Feb-21 06:46 47.583954 -117.680215 274 7392ft 235kts
04-Feb-21 06:47 47.584376 -117.775209 269 10071ft 241kts
04-Feb-21 06:48 47.587836 -117.877895 271 11999ft 252kts
04-Feb-21 06:49 47.590541 -117.977387 272 15191ft 233kts
04-Feb-21 06:50 47.596260 -118.083532 276 16034ft 288kts
04-Feb-21 06:51 47.608724 -118.257607 275 15942ft 301kts
04-Feb-21 06:52 47.633406 -118.532818 278 15892ft 298kts
04-Feb-21 06:53 47.658031 -118.792278 274 16054ft 297kts
04-Feb-21 06:54 47.670470 -119.037089 272 15943ft 298kts
04-Feb-21 06:55 47.678177 -119.281344 270 16279ft 296kts
04-Feb-21 06:57 47.688431 -119.527689 275 16039ft 297kts
04-Feb-21 06:58 47.706880 -119.771753 276 15986ft 298kts
04-Feb-21 06:59 47.728741 -120.016242 278 15975ft 298kts
04-Feb-21 07:00 47.751294 -120.259663 277 15946ft 299kts
04-Feb-21 07:01 47.766241 -120.505536 274 15579ft 301kts
04-Feb-21 07:02 47.777220 -120.750474 273 15625ft 296kts
04-Feb-21 07:03 47.793439 -120.993342 276 15415ft 301kts
04-Feb-21 07:04 47.810164 -121.170447 281 11688ft 289kts
04-Feb-21 07:05 47.826816 -121.280625 284 9575ft 288kts
04-Feb-21 07:06 47.840511 -121.391004 277 9616ft 286kts
04-Feb-21 07:07 47.847439 -121.503046 273 9599ft 288kts
04-Feb-21 07:08 47.853144 -121.612275 277 10071ft 279kts
04-Feb-21 07:09 47.868629 -121.714074 310 9936ft 289kts
04-Feb-21 07:10 47.906627 -121.784633 250 9994ft 288kts
04-Feb-21 07:11 47.846943 -121.855946 210 7151ft 306kts
04-Feb-21 07:11 47.793036 -121.902960 212 6988ft 271kts
04-Feb-21 07:13 47.736155 -121.993097 255 5483ft 305kts
04-Feb-21 07:14 47.728139 -122.099006 269 4754ft 227kts
04-Feb-21 07:14 47.727819 -122.174216 270 2978ft 221kts
04-Feb-21 07:16 47.719183 -122.252384 212 2951ft 156kts
04-Feb-21 07:16 47.687350 -122.269197 186 2726ft 157kts
04-Feb-21 07:17 47.651413 -122.288902 206 2998ft 134kts
04-Feb-21 07:19 47.609692 -122.302515 183 3050ft 146kts
04-Feb-21 07:19 47.578636 -122.300566 178 2875ft 123kts
04-Feb-21 07:20 47.547752 -122.304284 189 2078ft 105kts
04-Feb-21 07:21 47.520756 -122.306563 179 1548ft 100kts
04-Feb-21 07:22 47.494109 -122.307131 180 1064ft 103kts
04-Feb-21 07:23 47.466479 -122.307647 180 524ft 104kts
04-Feb-21 07:24 47.452317 -122.306997 137 416ft 0kts

Navigation Log

Ident Type
Flight plan parsing failed, navigation log unavailable